Time,TemperatureF,DewpointF,PressureIn,WindDirection,WindDirectionDegrees,WindSpeedMPH,WindSpeedGustMPH,Humidity,HourlyPrecipIn,Conditions,Clouds,dailyrainin,SoftwareType,DateUTC
2013-01-22 00:03:00,76.0,-99.9,30.04,ESE,114,6.0,7.0,-999,-99.99,,,-99.99,,2013-01-22 04:03:00,
2013-01-22 00:12:00,77.0,-99.9,30.04,ESE,120,6.0,7.0,-999,-99.99,,,-99.99,,2013-01-22 04:12:00,
2013-01-22 00:22:00,76.0,-99.9,30.04,ESE,123,5.0,6.0,-999,-99.99,,,-99.99,,2013-01-22 04:22:00,
2013-01-22 00:33:00,77.0,-99.9,30.04,SE,131,7.0,9.0,-999,-99.99,,,-99.99,,2013-01-22 04:33:00,
2013-01-22 00:43:00,77.0,-99.9,30.04,SSE,160,6.0,8.0,-999,-99.99,,,-99.99,,2013-01-22 04:43:00,
2013-01-22 00:53:00,76.0,-99.9,30.04,SSE,161,4.0,6.0,-999,-99.99,,,-99.99,,2013-01-22 04:53:00,
2013-01-22 01:05:00,76.0,-99.9,30.04,WSW,239,3.0,5.0,-999,-99.99,,,-99.99,,2013-01-22 05:05:00,
2013-01-22 01:12:00,76.0,-99.9,30.04,SW,230,1.0,3.0,-999,-99.99,,,-99.99,,2013-01-22 05:12:00,
2013-01-22 01:23:00,76.0,-99.9,30.04,South,190,1.0,3.0,-999,-99.99,,,-99.99,,2013-01-22 05:23:00,
2013-01-22 01:33:00,76.0,-99.9,30.04,South,190,1.0,3.0,-999,-99.99,,,-99.99,,2013-01-22 05:33:00,
2013-01-22 01:43:00,75.0,-99.9,30.03,South,169,2.0,4.0,-999,-99.99,,,-99.99,,2013-01-22 05:43:00,
2013-01-22 01:53:00,75.0,-99.9,30.03,ESE,106,2.0,4.0,-999,-99.99,,,-99.99,,2013-01-22 05:53:00,
2013-01-22 02:02:00,75.0,-99.9,30.03,East,83,4.0,5.0,-999,-99.99,,,-99.99,,2013-01-22 06:02:00,
2013-01-22 02:12:00,76.0,-99.9,30.02,ESE,115,7.0,9.0,-999,-99.99,,,-99.99,,2013-01-22 06:12:00,
2013-01-22 02:22:00,76.0,-99.9,30.02,ESE,123,6.0,9.0,-999,-99.99,,,-99.99,,2013-01-22 06:22:00,
2013-01-22 02:33:00,76.0,-99.9,30.02,SE,126,7.0,8.0,-999,-99.99,,,-99.99,,2013-01-22 06:33:00,
2013-01-22 02:43:00,76.0,-99.9,30.01,ESE,112,6.0,8.0,-999,-99.99,,,-99.99,,2013-01-22 06:43:00,
2013-01-22 02:53:00,75.0,-99.9,30.01,SE,125,8.0,10.0,-999,-99.99,,,-99.99,,2013-01-22 06:53:00,
2013-01-22 03:02:00,75.0,-99.9,30.00,SE,126,8.0,9.0,-999,-99.99,,,-99.99,,2013-01-22 07:02:00,
2013-01-22 03:12:00,76.0,-99.9,30.00,SE,130,6.0,9.0,-999,-99.99,,,-99.99,,2013-01-22 07:12:00,
2013-01-22 03:22:00,75.0,-99.9,30.00,SE,135,6.0,8.0,-999,-99.99,,,-99.99,,2013-01-22 07:22:00,
2013-01-22 03:33:00,75.0,-99.9,30.00,ESE,114,6.0,7.0,-999,-99.99,,,-99.99,,2013-01-22 07:33:00,
2013-01-22 03:43:00,75.0,-99.9,30.00,ESE,112,5.0,6.0,-999,-99.99,,,-99.99,,2013-01-22 07:43:00,
2013-01-22 03:53:00,76.0,-99.9,30.00,SE,124,3.0,4.0,-999,-99.99,,,-99.99,,2013-01-22 07:53:00,
2013-01-22 04:02:00,76.0,-99.9,30.00,SE,138,4.0,4.0,-999,-99.99,,,-99.99,,2013-01-22 08:02:00,
2013-01-22 04:12:00,75.0,-99.9,30.00,SSE,160,4.0,5.0,-999,-99.99,,,-99.99,,2013-01-22 08:12:00,
2013-01-22 04:22:00,76.0,-99.9,30.00,SSW,199,5.0,6.0,-999,-99.99,,,-99.99,,2013-01-22 08:22:00,
2013-01-22 04:33:00,76.0,-99.9,30.00,SW,230,3.0,5.0,-999,-99.99,,,-99.99,,2013-01-22 08:33:00,
2013-01-22 04:43:00,76.0,-99.9,30.00,SW,218,2.0,4.0,-999,-99.99,,,-99.99,,2013-01-22 08:43:00,
2013-01-22 04:53:00,75.0,-99.9,30.00,SSE,151,2.0,3.0,-999,-99.99,,,-99.99,,2013-01-22 08:53:00,
2013-01-22 05:02:00,75.0,-99.9,30.00,SE,141,4.0,6.0,-999,-99.99,,,-99.99,,2013-01-22 09:02:00,
2013-01-22 05:12:00,76.0,-99.9,30.00,SE,129,5.0,6.0,-999,-99.99,,,-99.99,,2013-01-22 09:12:00,
2013-01-22 05:23:00,76.0,-99.9,30.01,SE,130,6.0,7.0,-999,-99.99,,,-99.99,,2013-01-22 09:23:00,
2013-01-22 05:33:00,76.0,-99.9,30.01,SE,129,7.0,9.0,-999,-99.99,,,-99.99,,2013-01-22 09:33:00,
2013-01-22 05:43:00,76.0,-99.9,30.01,ESE,119,7.0,8.0,-999,-99.99,,,-99.99,,2013-01-22 09:43:00,
2013-01-22 05:53:00,76.0,-99.9,30.02,ESE,123,6.0,7.0,-999,-99.99,,,-99.99,,2013-01-22 09:53:00,
2013-01-22 06:03:00,76.0,-99.9,30.02,SSE,151,5.0,7.0,-999,-99.99,,,-99.99,,2013-01-22 10:03:00,
2013-01-22 06:12:00,76.0,-99.9,30.02,SSE,150,4.0,6.0,-999,-99.99,,,-99.99,,2013-01-22 10:12:00,
2013-01-22 06:22:00,76.0,-99.9,30.02,SE,143,5.0,6.0,-999,-99.99,,,-99.99,,2013-01-22 10:22:00,
2013-01-22 06:33:00,76.0,-99.9,30.02,SSE,164,4.0,5.0,-999,-99.99,,,-99.99,,2013-01-22 10:33:00,
2013-01-22 06:43:00,76.0,-99.9,30.02,South,191,4.0,4.0,-999,-99.99,,,-99.99,,2013-01-22 10:43:00,
2013-01-22 06:53:00,75.0,-99.9,30.03,SSE,155,3.0,4.0,-999,-99.99,,,-99.99,,2013-01-22 10:53:00,
2013-01-22 07:02:00,75.0,-99.9,30.03,SSE,160,3.0,5.0,-999,-99.99,,,-99.99,,2013-01-22 11:02:00,
2013-01-22 07:12:00,75.0,-99.9,30.03,SE,140,4.0,6.0,-999,-99.99,,,-99.99,,2013-01-22 11:12:00,
2013-01-22 07:23:00,75.0,-99.9,30.04,SSE,159,5.0,6.0,-999,-99.99,,,-99.99,,2013-01-22 11:23:00,
2013-01-22 07:33:00,75.0,-99.9,30.04,SSE,159,6.0,6.0,-999,-99.99,,,-99.99,,2013-01-22 11:33:00,
2013-01-22 07:43:00,75.0,-99.9,30.04,South,173,5.0,7.0,-999,-99.99,,,-99.99,,2013-01-22 11:43:00,
2013-01-22 07:54:00,75.0,-99.9,30.05,South,173,4.0,5.0,-999,-99.99,,,-99.99,,2013-01-22 11:54:00,
2013-01-22 08:04:00,76.0,-99.9,30.05,South,176,4.0,5.0,-999,-99.99,,,-99.99,,2013-01-22 12:04:00,
2013-01-22 08:13:00,76.0,-99.9,30.06,South,177,4.0,5.0,-999,-99.99,,,-99.99,,2013-01-22 12:13:00,
2013-01-22 08:23:00,76.0,-99.9,30.06,SSE,149,5.0,6.0,-999,-99.99,,,-99.99,,2013-01-22 12:23:00,
2013-01-22 08:33:00,76.0,-99.9,30.06,SSE,149,5.0,6.0,-999,-99.99,,,-99.99,,2013-01-22 12:33:00,
2013-01-22 08:43:00,77.0,-99.9,30.07,SE,143,5.0,6.0,-999,-99.99,,,-99.99,,2013-01-22 12:43:00,
2013-01-22 08:53:00,77.0,-99.9,30.07,SE,145,5.0,6.0,-999,-99.99,,,-99.99,,2013-01-22 12:53:00,
2013-01-22 09:04:00,77.0,-99.9,30.08,SE,144,4.0,6.0,-999,-99.99,,,-99.99,,2013-01-22 13:04:00,
2013-01-22 09:14:00,78.0,-99.9,30.08,SSE,151,4.0,5.0,-999,-99.99,,,-99.99,,2013-01-22 13:14:00,
2013-01-22 09:24:00,78.0,-99.9,30.08,SE,140,6.0,7.0,-999,-99.99,,,-99.99,,2013-01-22 13:24:00,
2013-01-22 09:34:00,78.0,-99.9,30.08,SE,127,7.0,9.0,-999,-99.99,,,-99.99,,2013-01-22 13:34:00,
2013-01-22 09:43:00,78.0,-99.9,30.08,ESE,109,11.0,13.0,-999,-99.99,,,-99.99,,2013-01-22 13:43:00,
2013-01-22 09:54:00,78.0,-99.9,30.08,ESE,118,10.0,14.0,-999,-99.99,,,-99.99,,2013-01-22 13:54:00,
2013-01-22 10:03:00,78.0,-99.9,30.08,SE,128,9.0,13.0,-999,-99.99,,,-99.99,,2013-01-22 14:03:00,
2013-01-22 10:13:00,78.0,-99.9,30.08,SE,133,11.0,13.0,-999,-99.99,,,-99.99,,2013-01-22 14:13:00,
2013-01-22 10:23:00,79.0,-99.9,30.09,SE,130,8.0,10.0,-999,-99.99,,,-99.99,,2013-01-22 14:23:00,
2013-01-22 10:34:00,79.0,-99.9,30.09,SE,130,9.0,10.0,-999,-99.99,,,-99.99,,2013-01-22 14:34:00,
2013-01-22 10:44:00,79.0,-99.9,30.09,ESE,117,8.0,10.0,-999,-99.99,,,-99.99,,2013-01-22 14:44:00,
2013-01-22 10:54:00,79.0,-99.9,30.09,ESE,115,10.0,13.0,-999,-99.99,,,-99.99,,2013-01-22 14:54:00,
2013-01-22 11:04:00,80.0,-99.9,30.08,SE,133,11.0,13.0,-999,-99.99,,,-99.99,,2013-01-22 15:04:00,
2013-01-22 11:13:00,80.0,-99.9,30.08,SE,132,8.0,13.0,-999,-99.99,,,-99.99,,2013-01-22 15:13:00,
2013-01-22 11:24:00,80.0,-99.9,30.07,SE,132,11.0,14.0,-999,-99.99,,,-99.99,,2013-01-22 15:24:00,
2013-01-22 11:34:00,81.0,-99.9,30.07,ESE,108,10.0,13.0,-999,-99.99,,,-99.99,,2013-01-22 15:34:00,
2013-01-22 11:44:00,81.0,-99.9,30.07,ESE,108,10.0,13.0,-999,-99.99,,,-99.99,,2013-01-22 15:44:00,
2013-01-22 11:54:00,80.0,-99.9,30.06,East,81,15.0,18.0,-999,-99.99,,,-99.99,,2013-01-22 15:54:00,
2013-01-22 12:04:00,80.0,-99.9,30.06,East,82,14.0,18.0,-999,-99.99,,,-99.99,,2013-01-22 16:04:00,
2013-01-22 12:13:00,80.0,-99.9,30.06,East,83,12.0,18.0,-999,-99.99,,,-99.99,,2013-01-22 16:13:00,
2013-01-22 12:24:00,80.0,-99.9,30.05,East,80,17.0,20.0,-999,-99.99,,,-99.99,,2013-01-22 16:24:00,
2013-01-22 12:33:00,80.0,-99.9,30.04,East,90,17.0,21.0,-999,-99.99,,,-99.99,,2013-01-22 16:33:00,
2013-01-22 12:43:00,80.0,-99.9,30.04,East,84,16.0,23.0,-999,-99.99,,,-99.99,,2013-01-22 16:43:00,
2013-01-22 12:54:00,80.0,-99.9,30.04,East,93,17.0,21.0,-999,-99.99,,,-99.99,,2013-01-22 16:54:00,
2013-01-22 13:04:00,80.0,-99.9,30.04,East,93,17.0,21.0,-999,-99.99,,,-99.99,,2013-01-22 17:04:00,
2013-01-22 13:13:00,80.0,-99.9,30.03,East,93,12.0,20.0,-999,-99.99,,,-99.99,,2013-01-22 17:13:00,
2013-01-22 13:23:00,80.0,-99.9,30.02,East,79,13.0,21.0,-999,-99.99,,,-99.99,,2013-01-22 17:23:00,
2013-01-22 13:35:00,80.0,-99.9,30.02,East,100,13.0,16.0,-999,-99.99,,,-99.99,,2013-01-22 17:35:00,
2013-01-22 13:44:00,81.0,-99.9,30.01,East,96,12.0,18.0,-999,-99.99,,,-99.99,,2013-01-22 17:44:00,
2013-01-22 13:54:00,80.0,-99.9,30.01,East,81,16.0,23.0,-999,-99.99,,,-99.99,,2013-01-22 17:54:00,
2013-01-22 14:04:00,80.0,-99.9,30.00,East,80,17.0,20.0,-999,-99.99,,,-99.99,,2013-01-22 18:04:00,
2013-01-22 14:13:00,80.0,-99.9,30.00,East,101,15.0,19.0,-999,-99.99,,,-99.99,,2013-01-22 18:13:00,
2013-01-22 14:24:00,81.0,-99.9,30.00,ESE,113,12.0,16.0,-999,-99.99,,,-99.99,,2013-01-22 18:24:00,
2013-01-22 14:34:00,82.0,-99.9,30.00,ESE,109,12.0,16.0,-999,-99.99,,,-99.99,,2013-01-22 18:34:00,
2013-01-22 14:44:00,81.0,-99.9,29.99,East,94,14.0,16.0,-999,-99.99,,,-99.99,,2013-01-22 18:44:00,
2013-01-22 14:54:00,81.0,-99.9,29.99,East,79,15.0,19.0,-999,-99.99,,,-99.99,,2013-01-22 18:54:00,
2013-01-22 15:04:00,81.0,-99.9,29.99,ENE,78,10.0,21.0,-999,-99.99,,,-99.99,,2013-01-22 19:04:00,
2013-01-22 15:14:00,82.0,-99.9,29.98,East,93,13.0,19.0,-999,-99.99,,,-99.99,,2013-01-22 19:14:00,
2013-01-22 15:24:00,81.0,-99.9,29.98,East,94,13.0,16.0,-999,-99.99,,,-99.99,,2013-01-22 19:24:00,
2013-01-22 15:34:00,81.0,-99.9,29.98,East,94,13.0,16.0,-999,-99.99,,,-99.99,,2013-01-22 19:34:00,
2013-01-22 15:44:00,82.0,-99.9,29.98,ESE,106,12.0,17.0,-999,-99.99,,,-99.99,,2013-01-22 19:44:00,
2013-01-22 15:54:00,82.0,-99.9,29.98,East,91,10.0,16.0,-999,-99.99,,,-99.99,,2013-01-22 19:54:00,
2013-01-22 16:03:00,82.0,-99.9,29.98,ENE,78,8.0,16.0,-999,-99.99,,,-99.99,,2013-01-22 20:03:00,
2013-01-22 16:13:00,82.0,-99.9,29.99,East,89,9.0,13.0,-999,-99.99,,,-99.99,,2013-01-22 20:13:00,
2013-01-22 16:23:00,82.0,-99.9,29.99,SE,124,12.0,17.0,-999,-99.99,,,-99.99,,2013-01-22 20:23:00,
2013-01-22 16:34:00,80.0,-99.9,30.00,SE,132,20.0,26.0,-999,-99.99,,,-99.99,,2013-01-22 20:34:00,
2013-01-22 16:43:00,80.0,-99.9,30.00,ESE,116,14.0,17.0,-999,-99.99,,,-99.99,,2013-01-22 20:43:00,
2013-01-22 16:54:00,81.0,-99.9,30.00,SE,128,12.0,14.0,-999,-99.99,,,-99.99,,2013-01-22 20:54:00,
2013-01-22 17:04:00,82.0,-99.9,30.00,SE,124,12.0,15.0,-999,-99.99,,,-99.99,,2013-01-22 21:04:00,
2013-01-22 17:13:00,82.0,-99.9,30.01,SE,139,7.0,11.0,-999,-99.99,,,-99.99,,2013-01-22 21:13:00,
2013-01-22 17:23:00,82.0,-99.9,30.01,SSE,149,10.0,12.0,-999,-99.99,,,-99.99,,2013-01-22 21:23:00,
2013-01-22 17:34:00,82.0,-99.9,30.01,SE,139,13.0,16.0,-999,-99.99,,,-99.99,,2013-01-22 21:34:00,
2013-01-22 17:44:00,82.0,-99.9,30.01,SE,138,13.0,16.0,-999,-99.99,,,-99.99,,2013-01-22 21:44:00,
2013-01-22 17:53:00,82.0,-99.9,30.01,SE,139,14.0,16.0,-999,-99.99,,,-99.99,,2013-01-22 21:53:00,
2013-01-22 18:03:00,82.0,-99.9,30.02,SE,146,12.0,14.0,-999,-99.99,,,-99.99,,2013-01-22 22:03:00,
2013-01-22 18:13:00,82.0,-99.9,30.02,SE,136,11.0,14.0,-999,-99.99,,,-99.99,,2013-01-22 22:13:00,
2013-01-22 18:23:00,82.0,-99.9,30.02,SE,124,12.0,15.0,-999,-99.99,,,-99.99,,2013-01-22 22:23:00,
2013-01-22 18:33:00,81.0,-99.9,30.02,ESE,104,11.0,16.0,-999,-99.99,,,-99.99,,2013-01-22 22:33:00,
2013-01-22 18:44:00,80.0,-99.9,30.02,ESE,113,13.0,16.0,-999,-99.99,,,-99.99,,2013-01-22 22:44:00,
2013-01-22 18:53:00,80.0,-99.9,30.02,East,100,11.0,15.0,-999,-99.99,,,-99.99,,2013-01-22 22:53:00,
2013-01-22 19:03:00,80.0,-99.9,30.03,ESE,114,14.0,16.0,-999,-99.99,,,-99.99,,2013-01-22 23:03:00,
2013-01-22 19:13:00,80.0,-99.9,30.03,ESE,111,12.0,13.0,-999,-99.99,,,-99.99,,2013-01-22 23:13:00,
2013-01-22 19:24:00,80.0,-99.9,30.03,ESE,118,11.0,12.0,-999,-99.99,,,-99.99,,2013-01-22 23:24:00,
2013-01-22 19:34:00,80.0,-99.9,30.04,ESE,122,11.0,13.0,-999,-99.99,,,-99.99,,2013-01-22 23:34:00,
2013-01-22 19:43:00,79.0,-99.9,30.04,ESE,119,11.0,14.0,-999,-99.99,,,-99.99,,2013-01-22 23:43:00,
2013-01-22 19:53:00,79.0,-99.9,30.04,ESE,119,9.0,13.0,-999,-99.99,,,-99.99,,2013-01-22 23:53:00,
2013-01-22 20:03:00,79.0,-99.9,30.04,ESE,111,11.0,14.0,-999,-99.99,,,-99.99,,2013-01-23 00:03:00,
2013-01-22 20:13:00,79.0,-99.9,30.05,ESE,118,10.0,12.0,-999,-99.99,,,-99.99,,2013-01-23 00:13:00,
2013-01-22 20:23:00,79.0,-99.9,30.05,ESE,119,9.0,11.0,-999,-99.99,,,-99.99,,2013-01-23 00:23:00,
2013-01-22 20:33:00,79.0,-99.9,30.05,ESE,118,8.0,11.0,-999,-99.99,,,-99.99,,2013-01-23 00:33:00,
2013-01-22 20:43:00,79.0,-99.9,30.06,ESE,111,9.0,11.0,-999,-99.99,,,-99.99,,2013-01-23 00:43:00,
2013-01-22 20:53:00,78.0,-99.9,30.06,ESE,118,7.0,9.0,-999,-99.99,,,-99.99,,2013-01-23 00:53:00,
2013-01-22 21:03:00,78.0,-99.9,30.06,ESE,119,6.0,8.0,-999,-99.99,,,-99.99,,2013-01-23 01:03:00,
2013-01-22 21:13:00,78.0,-99.9,30.06,ESE,120,6.0,7.0,-999,-99.99,,,-99.99,,2013-01-23 01:13:00,
2013-01-22 21:23:00,78.0,-99.9,30.07,ESE,118,7.0,8.0,-999,-99.99,,,-99.99,,2013-01-23 01:23:00,
2013-01-22 21:33:00,78.0,-99.9,30.07,SE,128,6.0,8.0,-999,-99.99,,,-99.99,,2013-01-23 01:33:00,
2013-01-22 21:43:00,78.0,-99.9,30.07,SE,124,6.0,7.0,-999,-99.99,,,-99.99,,2013-01-23 01:43:00,
2013-01-22 21:53:00,78.0,-99.9,30.07,SE,134,6.0,7.0,-999,-99.99,,,-99.99,,2013-01-23 01:53:00,
2013-01-22 22:03:00,78.0,-99.9,30.07,SE,128,5.0,6.0,-999,-99.99,,,-99.99,,2013-01-23 02:03:00,
2013-01-22 22:13:00,77.0,-99.9,30.07,SSE,148,4.0,6.0,-999,-99.99,,,-99.99,,2013-01-23 02:13:00,
2013-01-22 22:23:00,78.0,-99.9,30.07,ESE,106,3.0,4.0,-999,-99.99,,,-99.99,,2013-01-23 02:23:00,
2013-01-22 22:33:00,78.0,-99.9,30.07,SE,124,2.0,3.0,-999,-99.99,,,-99.99,,2013-01-23 02:33:00,
2013-01-22 22:43:00,77.0,-99.9,30.07,ESE,113,3.0,3.0,-999,-99.99,,,-99.99,,2013-01-23 02:43:00,
2013-01-22 22:54:00,77.0,-99.9,30.07,SSE,148,3.0,4.0,-999,-99.99,,,-99.99,,2013-01-23 02:54:00,
2013-01-22 23:03:00,78.0,-99.9,30.07,SE,140,1.0,4.0,-999,-99.99,,,-99.99,,2013-01-23 03:03:00,
2013-01-22 23:13:00,78.0,-99.9,30.07,ESE,123,3.0,6.0,-999,-99.99,,,-99.99,,2013-01-23 03:13:00,
2013-01-22 23:23:00,78.0,-99.9,30.07,SE,126,3.0,4.0,-999,-99.99,,,-99.99,,2013-01-23 03:23:00,
2013-01-22 23:33:00,78.0,-99.9,30.07,ESE,116,3.0,4.0,-999,-99.99,,,-99.99,,2013-01-23 03:33:00,
2013-01-22 23:43:00,78.0,-99.9,30.07,ESE,116,3.0,4.0,-999,-99.99,,,-99.99,,2013-01-23 03:43:00,
2013-01-22 23:53:00,78.0,-99.9,30.07,SE,136,2.0,4.0,-999,-99.99,,,-99.99,,2013-01-23 03:53:00,